Time;durP1;ratioP1;P1;durP2;ratioP2;P2;SDS_P1;SDS_P2;PMS_P1;PMS_P2;Temp;Humidity;BMP_temperature;BMP_pressure;BME280_temperature;BME280_humidity;BME280_pressure;Samples;Min_cycle;Max_cycle;Signal;HPM_P1;HPM_P2
2022/03/10 00:02:19;;;;;;;23.70;11.73;;;2.50;64.80;;;;;;4993385;28;20041;-73
2022/03/10 00:04:45;;;;;;;23.17;11.98;;;2.50;65.00;;;;;;4923244;28;268100;-74
2022/03/10 00:07:11;;;;;;;23.95;12.23;;;2.50;65.30;;;;;;4977210;28;20050;-74
2022/03/10 00:09:38;;;;;;;22.98;12.43;;;2.40;66.00;;;;;;4949053;28;41965;-74
2022/03/10 00:12:04;;;;;;;20.10;11.88;;;2.40;66.50;;;;;;4975608;28;20053;-73
2022/03/10 00:14:30;;;;;;;24.25;11.70;;;2.50;67.30;;;;;;4943738;28;244958;-74
2022/03/10 00:16:57;;;;;;;22.58;12.13;;;2.50;67.40;;;;;;4980950;28;20455;-73
2022/03/10 00:19:23;;;;;;;22.75;12.20;;;2.50;67.80;;;;;;4940879;28;242683;-74
2022/03/10 00:21:49;;;;;;;20.42;11.38;;;2.50;68.40;;;;;;4987915;28;20164;-74
2022/03/10 00:24:18;;;;;;;25.30;12.48;;;2.50;68.40;;;;;;4956817;28;250531;-74
2022/03/10 00:26:45;;;;;;;22.20;12.38;;;2.50;69.10;;;;;;4961020;28;20042;-75
2022/03/10 00:29:12;;;;;;;21.27;11.85;;;2.50;69.70;;;;;;4988977;28;109597;-74
2022/03/10 00:31:38;;;;;;;22.90;12.05;;;2.50;69.40;;;;;;4951550;28;20042;-74
2022/03/10 00:34:05;;;;;;;25.63;11.95;;;2.50;70.20;;;;;;4967445;28;273279;-74
2022/03/10 00:36:31;;;;;;;22.40;12.73;;;2.50;69.80;;;;;;4966592;28;20499;-74
2022/03/10 00:38:57;;;;;;;21.13;12.00;;;2.40;69.70;;;;;;4968944;28;261097;-72
2022/03/10 00:41:23;;;;;;;21.10;11.68;;;2.40;70.30;;;;;;4934250;28;20047;-72
2022/03/10 00:43:50;;;;;;;22.38;12.23;;;2.40;70.00;;;;;;4973286;28;256498;-71
2022/03/10 00:46:16;;;;;;;20.70;11.45;;;2.30;70.50;;;;;;4966116;28;20041;-72
2022/03/10 00:48:42;;;;;;;21.27;11.60;;;2.30;70.70;;;;;;4994181;28;20054;-72
2022/03/10 00:51:08;;;;;;;23.88;13.05;;;2.30;71.20;;;;;;4927925;28;122010;-74
2022/03/10 00:53:34;;;;;;;20.73;11.95;;;2.20;71.10;;;;;;4985084;28;20062;-73
2022/03/10 00:56:01;;;;;;;21.20;12.18;;;2.20;71.50;;;;;;4952892;28;95521;-73
2022/03/10 00:58:27;;;;;;;20.15;11.10;;;2.10;72.20;;;;;;4983633;28;20061;-73
2022/03/10 01:00:53;;;;;;;23.50;12.45;;;2.00;72.70;;;;;;4928969;28;270852;-73
2022/03/10 01:03:20;;;;;;;24.48;13.02;;;2.00;73.20;;;;;;4985315;28;20054;-73
2022/03/10 01:05:46;;;;;;;24.58;12.70;;;2.00;73.20;;;;;;4932169;28;238973;-74
2022/03/10 01:08:13;;;;;;;22.20;13.05;;;2.00;73.80;;;;;;4983563;28;20058;-73
2022/03/10 01:10:39;;;;;;;24.60;12.48;;;1.90;74.30;;;;;;4935046;28;259862;-73
2022/03/10 01:13:16;;;;;;;23.17;13.23;;;1.90;74.90;;;;;;4991916;28;20530;-73
2022/03/10 01:15:46;;;;;;;23.00;13.25;;;1.80;75.40;;;;;;4950021;28;124864;-73
2022/03/10 01:18:14;;;;;;;25.90;13.50;;;1.80;76.50;;;;;;4984274;28;20050;-73
2022/03/10 01:20:40;;;;;;;22.55;13.63;;;1.80;77.10;;;;;;4931002;28;193358;-73
2022/03/10 01:23:08;;;;;;;25.40;13.55;;;1.80;77.40;;;;;;4992925;28;20070;-73
2022/03/10 01:25:34;;;;;;;24.30;13.30;;;1.70;77.80;;;;;;4936937;28;253215;-73
2022/03/10 01:28:00;;;;;;;21.58;12.65;;;1.70;78.70;;;;;;4984877;28;20054;-73
2022/03/10 01:30:26;;;;;;;24.90;13.57;;;1.70;79.50;;;;;;4935539;28;89564;-74
2022/03/10 01:32:52;;;;;;;23.35;13.43;;;1.70;80.00;;;;;;4981793;28;20062;-73
2022/03/10 01:35:20;;;;;;;22.88;13.57;;;1.70;80.40;;;;;;4928560;28;260166;-73
2022/03/10 01:37:46;;;;;;;23.27;13.05;;;1.70;81.00;;;;;;4960705;28;20058;-73
2022/03/10 01:40:14;;;;;;;24.05;13.73;;;1.70;81.40;;;;;;4935101;28;262369;-73
2022/03/10 01:42:41;;;;;;;24.88;12.48;;;1.70;82.00;;;;;;4978418;28;20743;-73
2022/03/10 01:45:09;;;;;;;23.60;13.38;;;1.70;82.70;;;;;;4943113;28;20063;-73
2022/03/10 01:47:37;;;;;;;23.80;13.98;;;1.70;83.00;;;;;;5003818;28;20065;-74
2022/03/10 01:50:04;;;;;;;24.73;13.60;;;1.60;82.90;;;;;;4955524;28;133580;-74
2022/03/10 01:52:31;;;;;;;24.10;13.15;;;1.60;83.00;;;;;;5002422;28;20484;-73
2022/03/10 01:54:58;;;;;;;26.30;14.13;;;1.60;83.40;;;;;;4950271;28;123226;-73
2022/03/10 01:57:25;;;;;;;21.88;13.20;;;1.60;83.90;;;;;;5000315;28;20081;-73
2022/03/10 01:59:52;;;;;;;26.63;13.45;;;1.60;84.70;;;;;;4953131;28;265586;-73
2022/03/10 02:02:18;;;;;;;24.02;13.07;;;1.50;85.20;;;;;;4992305;28;20060;-73
2022/03/10 02:04:44;;;;;;;23.90;13.73;;;1.50;85.70;;;;;;4923337;28;207495;-74
2022/03/10 02:10:16;;;;;;;22.55;13.30;;;1.50;86.80;;;;;;4968682;28;20050;-73
2022/03/10 02:10:19;;;;;;;27.38;13.88;;;1.50;87.90;;;;;;4946154;28;273981;-73
2022/03/10 02:12:54;;;;;;;23.70;12.93;;;1.60;88.20;;;;;;4987062;28;20054;-73
2022/03/10 02:18:07;;;;;;;23.13;13.38;;;1.60;88.90;;;;;;4994076;28;20447;-74
2022/03/10 02:20:35;;;;;;;24.92;12.48;;;1.60;89.40;;;;;;4935874;28;269032;-74
2022/03/10 02:23:01;;;;;;;24.33;13.82;;;1.60;89.00;;;;;;4982338;28;20061;-74
2022/03/10 02:25:28;;;;;;;21.88;13.10;;;1.60;88.40;;;;;;4941297;28;259977;-74
2022/03/10 02:27:56;;;;;;;22.73;13.00;;;1.60;88.40;;;;;;4980628;28;20378;-74
2022/03/10 02:30:25;;;;;;;23.27;13.48;;;1.60;88.70;;;;;;4933019;28;268139;-74
2022/03/10 02:32:51;;;;;;;23.08;13.38;;;1.60;89.40;;;;;;4973018;28;20174;-74
2022/03/10 02:35:18;;;;;;;21.75;12.80;;;1.60;90.10;;;;;;4950071;28;243312;-74
2022/03/10 02:37:44;;;;;;;25.20;13.13;;;1.70;90.00;;;;;;4986596;28;20444;-74
2022/03/10 02:40:11;;;;;;;21.90;12.60;;;1.70;89.50;;;;;;4940430;28;232907;-73
2022/03/10 02:42:37;;;;;;;23.67;12.50;;;1.60;89.20;;;;;;4978610;28;20070;-74
2022/03/10 02:45:04;;;;;;;22.95;12.80;;;1.60;89.30;;;;;;4940456;28;55115;-74
2022/03/10 02:47:30;;;;;;;25.85;12.98;;;1.60;89.60;;;;;;4980659;28;20050;-73
2022/03/10 02:49:56;;;;;;;23.90;13.00;;;1.50;90.00;;;;;;4937660;28;183277;-73
2022/03/10 02:52:23;;;;;;;24.63;12.88;;;1.60;90.10;;;;;;4996675;28;20038;-74
2022/03/10 02:54:49;;;;;;;26.20;13.05;;;1.50;90.30;;;;;;4957600;28;159328;-76
2022/03/10 02:57:15;;;;;;;23.88;12.70;;;1.50;90.70;;;;;;4983094;28;20070;-74
2022/03/10 02:59:42;;;;;;;26.25;13.10;;;1.50;90.80;;;;;;4939787;28;236767;-74
2022/03/10 03:02:09;;;;;;;24.73;12.57;;;1.50;90.80;;;;;;4989423;28;20045;-75
2022/03/10 03:04:35;;;;;;;28.25;13.10;;;1.50;91.20;;;;;;4925825;28;264913;-75
2022/03/10 03:07:01;;;;;;;25.05;12.52;;;1.50;91.20;;;;;;4965338;28;20061;-75
2022/03/10 03:09:28;;;;;;;25.83;13.18;;;1.50;91.30;;;;;;4940834;28;258484;-74
2022/03/10 03:11:54;;;;;;;24.80;13.18;;;1.50;91.60;;;;;;4974603;28;20038;-74
2022/03/10 03:14:24;;;;;;;23.35;13.30;;;1.50;91.70;;;;;;4946947;28;214868;-74
2022/03/10 03:16:52;;;;;;;22.85;13.20;;;1.50;91.70;;;;;;4980041;28;20800;-74
2022/03/10 03:19:18;;;;;;;26.40;12.88;;;1.50;91.60;;;;;;4950072;28;188675;-73
2022/03/10 03:21:45;;;;;;;24.63;13.77;;;1.50;91.70;;;;;;4975014;28;20511;-73
2022/03/10 03:24:11;;;;;;;21.70;13.25;;;1.40;91.60;;;;;;4973196;28;72830;-74
2022/03/10 03:26:37;;;;;;;23.65;13.25;;;1.40;91.80;;;;;;4948937;28;20041;-75
2022/03/10 03:29:03;;;;;;;22.67;12.60;;;1.40;91.90;;;;;;4965196;28;277859;-74
2022/03/10 03:31:29;;;;;;;24.25;13.30;;;1.40;92.20;;;;;;4934392;28;20038;-74
2022/03/10 03:33:55;;;;;;;25.33;13.00;;;1.50;92.30;;;;;;4967201;28;245261;-75
2022/03/10 03:36:22;;;;;;;22.85;12.85;;;1.50;92.40;;;;;;4909832;28;21219;-74
2022/03/10 03:38:48;;;;;;;23.80;12.93;;;1.50;92.70;;;;;;4966619;28;253668;-74
2022/03/10 03:41:14;;;;;;;22.70;13.90;;;1.50;92.20;;;;;;4938050;28;20435;-74
2022/03/10 03:43:40;;;;;;;24.83;13.05;;;1.50;92.30;;;;;;4986494;28;20885;-74
2022/03/10 03:46:06;;;;;;;27.00;13.48;;;1.50;92.30;;;;;;4957615;28;252535;-74
2022/03/10 03:48:32;;;;;;;23.60;13.60;;;1.50;92.20;;;;;;4996118;28;20057;-74
2022/03/10 03:50:58;;;;;;;27.60;14.25;;;1.50;92.20;;;;;;4940735;28;66895;-74
2022/03/10 03:53:24;;;;;;;29.15;13.93;;;1.50;92.30;;;;;;4993082;28;20062;-74
2022/03/10 03:55:51;;;;;;;29.35;13.85;;;1.50;92.40;;;;;;4925805;28;271862;-75
2022/03/10 03:58:17;;;;;;;25.88;13.82;;;1.40;92.30;;;;;;4975514;28;20046;-74
2022/03/10 04:00:43;;;;;;;24.60;13.07;;;1.40;92.40;;;;;;4938623;28;266270;-74
2022/03/10 04:03:10;;;;;;;25.08;13.50;;;1.40;92.50;;;;;;4978364;28;20057;-75
2022/03/10 04:05:40;;;;;;;28.08;13.65;;;1.30;92.40;;;;;;4909349;28;235382;-74
2022/03/10 04:08:07;;;;;;;25.55;13.82;;;1.30;92.30;;;;;;4979746;28;20046;-74
2022/03/10 04:10:33;;;;;;;25.50;13.30;;;1.30;92.50;;;;;;4928418;28;166120;-74
2022/03/10 04:12:59;;;;;;;27.40;13.25;;;1.30;92.70;;;;;;4978959;28;20046;-75
2022/03/10 04:15:26;;;;;;;23.38;13.25;;;1.30;92.80;;;;;;4930711;28;190011;-74
2022/03/10 04:17:53;;;;;;;23.38;13.05;;;1.30;92.60;;;;;;4975148;28;20046;-74
2022/03/10 04:20:19;;;;;;;24.95;13.98;;;1.30;92.50;;;;;;4939955;28;261314;-74
2022/03/10 04:22:45;;;;;;;24.25;13.18;;;1.30;92.50;;;;;;4995931;28;20404;-74
2022/03/10 04:25:12;;;;;;;22.60;12.93;;;1.20;92.40;;;;;;4935971;28;244260;-74
2022/03/10 04:27:38;;;;;;;25.20;13.50;;;1.20;92.40;;;;;;4979235;28;20070;-75
2022/03/10 04:30:05;;;;;;;23.95;12.88;;;1.20;92.70;;;;;;4951687;28;138676;-73
2022/03/10 04:32:47;;;;;;;21.55;12.80;;;1.10;92.80;;;;;;4991578;28;20046;-74
2022/03/10 04:35:15;;;;;;;22.67;12.93;;;1.10;93.00;;;;;;4944712;28;269941;-74
2022/03/10 04:37:43;;;;;;;25.23;12.18;;;1.00;93.20;;;;;;4982454;28;21769;-74
2022/03/10 04:40:10;;;;;;;22.58;12.32;;;1.10;93.40;;;;;;4942427;28;64645;-75
2022/03/10 04:42:37;;;;;;;25.08;12.98;;;1.00;93.50;;;;;;4985924;28;20599;-74
2022/03/10 04:45:06;;;;;;;23.52;12.38;;;1.10;93.60;;;;;;4949076;28;32270;-73
2022/03/10 04:47:33;;;;;;;23.80;13.13;;;1.10;93.70;;;;;;4963105;28;20054;-74
2022/03/10 04:49:59;;;;;;;22.58;12.88;;;1.10;93.80;;;;;;4952853;28;20049;-74
2022/03/10 04:52:27;;;;;;;28.40;13.02;;;1.00;93.70;;;;;;5003019;28;20050;-74
2022/03/10 04:54:54;;;;;;;21.58;12.98;;;1.10;93.70;;;;;;4944407;28;46787;-74
2022/03/10 04:57:20;;;;;;;20.45;11.32;;;1.10;93.90;;;;;;4975821;28;20313;-74
2022/03/10 04:59:46;;;;;;;24.80;12.60;;;1.10;93.70;;;;;;4918358;28;278804;-75
2022/03/10 05:02:12;;;;;;;21.85;12.82;;;1.10;93.80;;;;;;4972176;28;20388;-74
2022/03/10 05:04:39;;;;;;;29.77;12.82;;;1.10;93.80;;;;;;4925611;28;158459;-76
2022/03/10 05:07:05;;;;;;;24.42;12.32;;;1.00;93.70;;;;;;4975919;28;20221;-74
2022/03/10 05:09:32;;;;;;;21.58;11.85;;;1.10;93.90;;;;;;4945362;28;259537;-75
2022/03/10 05:11:58;;;;;;;22.33;12.10;;;1.10;94.00;;;;;;4975251;28;20064;-75
2022/03/10 05:14:24;;;;;;;25.42;12.95;;;1.00;94.10;;;;;;4932376;28;337525;-75
2022/03/10 05:16:51;;;;;;;23.85;13.40;;;1.00;94.00;;;;;;4961146;28;20408;-75
2022/03/10 05:19:17;;;;;;;22.13;12.35;;;1.00;94.10;;;;;;4966240;28;254613;-76
2022/03/10 05:21:43;;;;;;;23.67;12.55;;;1.00;94.00;;;;;;4960189;28;20359;-75
2022/03/10 05:24:12;;;;;;;22.90;12.73;;;1.00;94.10;;;;;;4968173;28;250118;-74
2022/03/10 05:26:38;;;;;;;23.55;12.00;;;1.00;94.00;;;;;;4913375;28;20049;-75
2022/03/10 05:29:05;;;;;;;21.63;12.63;;;1.00;94.00;;;;;;4978582;28;236032;-74
2022/03/10 05:31:31;;;;;;;22.65;12.70;;;1.00;94.10;;;;;;4961565;28;20046;-75
2022/03/10 05:33:57;;;;;;;25.33;12.48;;;1.00;94.20;;;;;;4970863;28;266938;-75
2022/03/10 05:36:26;;;;;;;22.52;12.15;;;0.90;94.20;;;;;;4948352;28;20043;-75
2022/03/10 05:38:52;;;;;;;22.93;12.27;;;0.90;94.20;;;;;;4954755;28;267525;-73
2022/03/10 05:41:20;;;;;;;21.55;12.00;;;0.90;94.20;;;;;;4971373;28;20053;-74
2022/03/10 05:43:46;;;;;;;22.60;12.75;;;0.90;94.30;;;;;;4987611;28;273376;-73
2022/03/10 05:46:12;;;;;;;26.27;13.23;;;0.80;94.40;;;;;;4942262;28;20047;-73
2022/03/10 05:48:38;;;;;;;21.15;11.80;;;0.80;94.50;;;;;;4988954;28;20050;-73
2022/03/10 05:51:05;;;;;;;24.88;11.50;;;0.90;94.50;;;;;;4943369;28;308139;-74
2022/03/10 05:53:31;;;;;;;24.15;13.63;;;0.80;94.50;;;;;;4991626;28;20057;-75
2022/03/10 05:55:57;;;;;;;24.25;13.75;;;0.80;94.50;;;;;;4940811;28;261903;-75
2022/03/10 05:58:23;;;;;;;23.15;13.57;;;0.80;94.70;;;;;;4967522;28;20058;-75
2022/03/10 06:00:49;;;;;;;25.20;12.25;;;0.80;95.10;;;;;;4943059;28;86874;-73
2022/03/10 06:03:15;;;;;;;23.73;13.23;;;0.80;95.40;;;;;;4977634;28;20050;-74
2022/03/10 06:05:41;;;;;;;25.17;13.13;;;0.80;95.40;;;;;;4933661;28;267590;-73
2022/03/10 06:08:08;;;;;;;23.90;12.40;;;0.80;95.40;;;;;;4972246;28;20053;-74
2022/03/10 06:10:34;;;;;;;26.02;12.35;;;0.80;95.40;;;;;;4942133;28;73422;-74
2022/03/10 06:13:00;;;;;;;23.65;12.50;;;0.80;95.30;;;;;;4988783;28;20069;-74
2022/03/10 06:15:27;;;;;;;24.50;13.23;;;0.90;95.20;;;;;;4959980;28;249008;-74
2022/03/10 06:17:53;;;;;;;23.52;12.82;;;0.90;95.20;;;;;;4995420;28;20057;-74
2022/03/10 06:20:19;;;;;;;22.38;12.45;;;0.80;95.20;;;;;;4943963;28;250080;-74
2022/03/10 06:22:45;;;;;;;25.80;12.57;;;0.90;95.20;;;;;;4978876;28;20042;-74
2022/03/10 06:25:11;;;;;;;24.23;12.60;;;0.90;95.20;;;;;;4933857;28;128228;-74
2022/03/10 06:27:38;;;;;;;30.80;13.40;;;0.90;95.30;;;;;;4969025;28;20491;-74
2022/03/10 06:30:05;;;;;;;25.17;13.38;;;0.90;95.30;;;;;;4938657;28;118988;-75
2022/03/10 06:32:31;;;;;;;22.17;12.55;;;0.90;95.20;;;;;;4987656;28;20038;-74
2022/03/10 06:34:59;;;;;;;23.40;13.13;;;1.00;95.30;;;;;;4922390;28;42158;-74
2022/03/10 06:37:26;;;;;;;24.80;12.70;;;1.00;95.40;;;;;;4976420;28;20504;-74
2022/03/10 06:39:55;;;;;;;35.42;13.18;;;1.00;95.50;;;;;;4939163;28;278919;-74
2022/03/10 06:42:21;;;;;;;40.30;13.48;;;1.10;95.60;;;;;;4987330;28;20050;-74
2022/03/10 06:44:48;;;;;;;52.85;15.30;;;1.10;95.80;;;;;;4957047;28;87692;-74
2022/03/10 06:47:14;;;;;;;64.10;14.82;;;1.20;95.80;;;;;;4989025;28;20045;-75
2022/03/10 06:49:40;;;;;;;37.45;13.48;;;1.30;95.70;;;;;;4945727;28;157140;-74
2022/03/10 06:52:08;;;;;;;30.58;12.98;;;1.30;95.90;;;;;;4978328;28;20069;-74
2022/03/10 06:54:35;;;;;;;29.42;13.40;;;1.40;95.90;;;;;;4936440;28;187071;-74
2022/03/10 06:57:01;;;;;;;33.78;13.57;;;1.40;95.80;;;;;;4983839;28;20092;-73
2022/03/10 06:59:27;;;;;;;35.72;13.32;;;1.50;95.70;;;;;;4943671;28;273907;-73
2022/03/10 07:01:53;;;;;;;23.85;12.55;;;1.60;95.70;;;;;;5008561;28;20508;-73
2022/03/10 07:04:19;;;;;;;24.40;13.63;;;1.70;95.60;;;;;;4925845;28;263081;-72
2022/03/10 07:06:46;;;;;;;22.95;12.15;;;1.80;95.50;;;;;;4961278;28;20054;-73
2022/03/10 07:09:12;;;;;;;22.90;12.48;;;1.80;95.60;;;;;;4968629;28;169142;-76
2022/03/10 07:11:38;;;;;;;22.90;12.55;;;1.90;95.50;;;;;;4936484;28;20049;-76
2022/03/10 07:14:04;;;;;;;22.05;12.63;;;2.00;95.50;;;;;;4969991;28;261319;-77
2022/03/10 07:16:31;;;;;;;25.60;12.30;;;2.10;95.30;;;;;;4952805;28;20045;-78
2022/03/10 07:18:57;;;;;;;35.97;13.60;;;2.20;95.30;;;;;;4968604;28;279469;-76
2022/03/10 07:21:23;;;;;;;43.15;14.23;;;2.30;94.90;;;;;;4954436;28;20042;-75
2022/03/10 07:23:50;;;;;;;29.13;13.18;;;2.40;94.70;;;;;;4968697;28;269921;-76
2022/03/10 07:26:17;;;;;;;23.38;12.80;;;2.50;94.50;;;;;;4954967;28;20045;-75
2022/03/10 07:28:43;;;;;;;21.33;12.10;;;2.50;94.30;;;;;;4990079;28;20065;-76
2022/03/10 07:31:10;;;;;;;23.17;12.65;;;2.50;94.30;;;;;;4939642;28;255106;-78
2022/03/10 07:33:36;;;;;;;22.67;12.35;;;2.70;94.20;;;;;;4992535;28;20604;-76
2022/03/10 07:36:03;;;;;;;25.35;13.63;;;2.70;94.10;;;;;;4966869;28;141477;-75
2022/03/10 07:38:30;;;;;;;20.83;12.38;;;2.80;93.90;;;;;;4994774;28;20069;-78
2022/03/10 07:40:57;;;;;;;27.95;12.70;;;2.90;93.90;;;;;;4967330;28;96458;-76
2022/03/10 07:43:24;;;;;;;26.38;12.85;;;2.90;93.80;;;;;;4978877;28;20065;-77
2022/03/10 07:45:53;;;;;;;21.60;12.00;;;3.00;93.60;;;;;;4941627;28;79916;-79
2022/03/10 07:48:19;;;;;;;25.73;12.60;;;3.10;93.50;;;;;;4995413;28;20299;-76
2022/03/10 07:50:45;;;;;;;22.90;11.93;;;3.20;93.30;;;;;;4958406;28;274278;-76
2022/03/10 07:53:11;;;;;;;22.80;12.27;;;3.30;93.20;;;;;;4987207;28;20397;-77
2022/03/10 07:55:38;;;;;;;19.75;11.75;;;3.40;93.00;;;;;;4965942;28;254788;-77
2022/03/10 07:58:04;;;;;;;24.10;12.25;;;3.50;92.80;;;;;;4994603;28;20058;-77
2022/03/10 08:00:32;;;;;;;26.30;12.60;;;3.60;92.60;;;;;;4954320;28;227515;-76
2022/03/10 08:02:58;;;;;;;27.48;11.93;;;3.70;92.60;;;;;;4988219;28;20057;-77
2022/03/10 08:05:24;;;;;;;32.42;13.15;;;3.80;92.50;;;;;;4911364;28;240475;-76
2022/03/10 08:07:50;;;;;;;29.20;13.63;;;3.80;92.40;;;;;;4976415;28;20055;-79
2022/03/10 08:10:16;;;;;;;27.60;12.73;;;3.90;92.30;;;;;;4933080;28;126591;-76
2022/03/10 08:12:42;;;;;;;23.20;12.73;;;4.00;92.20;;;;;;4968585;28;20049;-76
2022/03/10 08:15:08;;;;;;;20.55;11.65;;;4.10;92.10;;;;;;4957672;28;150751;-76
2022/03/10 08:17:36;;;;;;;21.52;12.07;;;4.20;91.90;;;;;;4994042;28;20050;-76
2022/03/10 08:20:03;;;;;;;21.15;12.23;;;4.30;91.80;;;;;;4938732;28;157896;-76
2022/03/10 08:22:29;;;;;;;22.17;12.52;;;4.40;91.70;;;;;;4980215;28;20407;-75
2022/03/10 08:24:55;;;;;;;24.65;12.38;;;4.50;91.50;;;;;;4939348;28;112304;-75
2022/03/10 08:27:21;;;;;;;23.60;12.30;;;4.60;91.50;;;;;;4987610;28;20134;-76
2022/03/10 08:29:47;;;;;;;23.13;12.52;;;4.60;91.40;;;;;;4953059;28;210403;-75
2022/03/10 08:32:14;;;;;;;22.77;12.30;;;4.70;91.30;;;;;;4976128;28;20061;-76
2022/03/10 08:34:40;;;;;;;20.80;12.60;;;4.80;91.10;;;;;;4938137;28;172963;-75
2022/03/10 08:37:07;;;;;;;23.50;13.00;;;4.90;91.10;;;;;;4980330;28;20523;-76
2022/03/10 08:39:33;;;;;;;20.73;11.88;;;5.00;91.00;;;;;;4946674;28;104966;-76
2022/03/10 08:41:59;;;;;;;21.50;12.80;;;5.10;90.90;;;;;;4992412;28;20050;-76
2022/03/10 08:44:26;;;;;;;22.70;13.02;;;5.20;90.70;;;;;;4935975;28;261867;-76
2022/03/10 08:46:52;;;;;;;24.17;12.30;;;5.30;90.60;;;;;;4971209;28;20607;-76
2022/03/10 08:49:18;;;;;;;23.05;13.45;;;5.40;90.50;;;;;;4948324;28;139364;-75
2022/03/10 08:51:47;;;;;;;21.65;12.35;;;5.50;90.40;;;;;;4973113;28;20054;-75
2022/03/10 08:54:14;;;;;;;22.20;12.30;;;5.50;90.30;;;;;;4970069;28;134200;-76
2022/03/10 08:56:40;;;;;;;23.55;13.07;;;5.60;90.20;;;;;;4925518;28;20093;-75
2022/03/10 08:59:06;;;;;;;23.75;12.88;;;5.80;90.00;;;;;;4970240;28;271468;-75
2022/03/10 09:01:32;;;;;;;21.98;12.68;;;5.90;89.50;;;;;;4989216;28;20546;-75
2022/03/10 09:03:58;;;;;;;22.42;13.48;;;6.00;89.50;;;;;;4957946;28;255133;-75
2022/03/10 09:06:25;;;;;;;21.98;12.93;;;6.10;89.30;;;;;;4957471;28;20046;-74
2022/03/10 09:08:51;;;;;;;21.63;12.90;;;6.10;88.40;;;;;;4969511;28;259344;-75
2022/03/10 09:11:17;;;;;;;21.77;12.38;;;6.30;88.20;;;;;;4955186;28;20053;-74
2022/03/10 09:13:48;;;;;;;25.05;12.57;;;6.40;87.80;;;;;;4984136;28;20061;-75
2022/03/10 09:16:16;;;;;;;24.17;12.70;;;6.50;87.10;;;;;;4953973;28;20038;-74
2022/03/10 09:18:43;;;;;;;23.90;12.45;;;6.50;86.60;;;;;;4985398;28;20059;-75
2022/03/10 09:21:09;;;;;;;24.98;13.00;;;6.70;85.60;;;;;;4929582;28;274684;-75
2022/03/10 09:23:36;;;;;;;20.83;12.85;;;6.80;85.00;;;;;;4967612;28;20050;-75
2022/03/10 09:26:02;;;;;;;24.58;13.02;;;6.90;83.20;;;;;;4931630;28;259592;-74
2022/03/10 09:28:28;;;;;;;23.73;12.93;;;7.00;81.00;;;;;;4986698;28;20050;-74
2022/03/10 09:30:55;;;;;;;24.65;13.20;;;7.20;80.20;;;;;;4932375;28;157929;-75
2022/03/10 09:33:21;;;;;;;22.83;12.55;;;7.50;77.90;;;;;;4984212;28;20053;-74
2022/03/10 09:35:47;;;;;;;20.70;12.50;;;7.60;77.50;;;;;;4966109;28;255400;-74
2022/03/10 09:38:13;;;;;;;22.65;12.30;;;7.70;76.50;;;;;;4985265;28;20058;-74
2022/03/10 09:40:39;;;;;;;21.50;12.40;;;7.80;75.60;;;;;;4929982;28;112445;-74
2022/03/10 09:43:05;;;;;;;22.55;12.80;;;7.80;75.50;;;;;;4982087;28;20053;-75
2022/03/10 09:45:32;;;;;;;27.42;13.40;;;7.90;75.90;;;;;;4929797;28;40366;-74
2022/03/10 09:47:59;;;;;;;21.55;12.70;;;8.10;76.70;;;;;;4979610;28;20054;-75
2022/03/10 09:50:25;;;;;;;22.08;12.35;;;8.50;77.20;;;;;;4952322;28;175641;-75
2022/03/10 09:52:51;;;;;;;22.65;13.27;;;9.20;77.60;;;;;;4988373;28;20054;-75
2022/03/10 09:55:18;;;;;;;21.55;13.15;;;10.10;78.10;;;;;;4928714;28;233665;-75
2022/03/10 09:57:45;;;;;;;21.23;13.32;;;11.10;79.00;;;;;;4966850;28;20057;-76
2022/03/10 10:00:15;;;;;;;24.35;13.32;;;12.10;79.00;;;;;;4927214;28;225615;-76
2022/03/10 10:02:42;;;;;;;19.88;13.52;;;13.00;76.00;;;;;;4975752;28;20046;-73
2022/03/10 10:05:29;;;;;;;20.88;13.50;;;13.70;69.10;;;;;;4922811;28;258397;-76
2022/03/10 10:08:01;;;;;;;21.13;13.38;;;14.20;62.40;;;;;;4978325;28;20488;-76
2022/03/10 10:10:29;;;;;;;20.17;13.30;;;14.70;64.80;;;;;;4936427;28;89052;-76
2022/03/10 10:12:55;;;;;;;21.42;14.00;;;15.10;62.00;;;;;;4985887;28;20057;-76
2022/03/10 10:15:21;;;;;;;19.60;13.98;;;15.40;58.50;;;;;;4962671;28;254319;-75
2022/03/10 10:17:56;;;;;;;19.30;13.35;;;15.90;58.90;;;;;;4991149;28;20054;-75
2022/03/10 10:20:22;;;;;;;21.67;13.50;;;16.20;55.70;;;;;;4942328;28;52914;-75
2022/03/10 10:22:50;;;;;;;20.80;13.25;;;16.80;56.20;;;;;;4977807;28;20054;-76
2022/03/10 10:25:21;;;;;;;20.17;13.23;;;17.30;52.90;;;;;;4942271;28;240585;-76
2022/03/10 10:27:48;;;;;;;;;;;17.70;53.00;;;;;;4991540;28;20488;-75
2022/03/10 10:30:15;;;;;;;20.33;13.30;;;17.80;43.70;;;;;;4970402;28;58528;-75
2022/03/10 10:32:49;;;;;;;20.15;13.32;;;18.10;51.20;;;;;;5002204;28;21049;-75
2022/03/10 10:35:23;;;;;;;19.35;13.55;;;18.60;50.20;;;;;;4952639;28;244703;-76
2022/03/10 10:37:51;;;;;;;20.23;13.02;;;19.30;49.20;;;;;;4985309;28;20050;-75
2022/03/10 10:40:23;;;;;;;18.75;13.32;;;19.80;47.70;;;;;;4938642;28;269095;-76
2022/03/10 10:42:49;;;;;;;19.83;13.15;;;20.20;46.50;;;;;;4987299;28;20053;-76
2022/03/10 10:45:30;;;;;;;19.42;12.90;;;20.50;45.60;;;;;;4932138;28;241754;-76
2022/03/10 10:47:57;;;;;;;;;;;20.90;43.70;;;;;;4983330;28;20055;-75
2022/03/10 10:50:23;;;;;;;19.70;13.70;;;21.00;36.40;;;;;;4937612;28;263231;-75
2022/03/10 10:52:49;;;;;;;18.73;13.38;;;20.80;43.30;;;;;;4980796;28;20061;-75
2022/03/10 10:55:15;;;;;;;19.83;14.23;;;21.00;43.00;;;;;;4956784;28;136197;-76
2022/03/10 10:57:43;;;;;;;19.92;13.80;;;21.20;42.20;;;;;;5003976;28;20053;-76
2022/03/10 11:00:13;;;;;;;19.30;14.05;;;21.60;40.90;;;;;;4948082;28;271087;-75
2022/03/10 11:02:44;;;;;;;20.73;13.95;;;21.20;39.50;;;;;;4987785;28;20392;-75
2022/03/10 11:05:14;;;;;;;20.75;14.00;;;21.50;40.60;;;;;;4927983;28;260728;-76
2022/03/10 11:07:40;;;;;;;20.00;14.27;;;21.90;40.70;;;;;;4959391;28;20045;-75
2022/03/10 11:10:09;;;;;;;21.20;14.60;;;22.30;38.60;;;;;;4937769;28;128371;-75
2022/03/10 11:12:39;;;;;;;19.90;14.30;;;22.20;37.30;;;;;;4986726;28;20062;-75
2022/03/10 11:15:09;;;;;;;19.52;13.75;;;22.40;38.00;;;;;;4950610;28;178321;-75
2022/03/10 11:17:36;;;;;;;17.70;13.45;;;22.90;38.60;;;;;;4991060;28;20054;-76
2022/03/10 11:20:07;;;;;;;25.60;14.20;;;23.30;37.10;;;;;;4933398;28;183896;-76
2022/03/10 11:22:58;;;;;;;19.02;14.15;;;23.40;37.10;;;;;;4978939;28;20762;-76
2022/03/10 11:25:41;;;;;;;18.75;13.95;;;23.70;36.80;;;;;;4928831;28;143968;-76
2022/03/10 11:28:14;;;;;;;18.60;13.82;;;24.00;35.10;;;;;;4985676;28;20172;-75
2022/03/10 11:30:40;;;;;;;22.95;13.95;;;23.80;33.20;;;;;;4943204;28;100503;-75
2022/03/10 11:33:16;;;;;;;19.77;14.15;;;23.00;34.80;;;;;;4990604;28;20050;-76
2022/03/10 11:35:45;;;;;;;19.50;14.25;;;23.40;34.60;;;;;;4965414;28;257919;-76
2022/03/10 11:38:13;;;;;;;18.75;13.23;;;23.70;35.00;;;;;;4992366;28;20085;-76
2022/03/10 11:40:51;;;;;;;20.45;14.15;;;24.00;34.50;;;;;;4928173;28;197381;-76
2022/03/10 11:43:30;;;;;;;19.48;14.43;;;24.30;34.10;;;;;;4985834;28;20054;-76
2022/03/10 11:46:14;;;;;;;19.88;14.93;;;24.30;33.90;;;;;;4948964;28;258308;-75
2022/03/10 11:48:42;;;;;;;19.75;14.38;;;24.70;32.50;;;;;;4987668;28;20038;-75
2022/03/10 11:51:10;;;;;;;21.20;14.23;;;24.90;33.20;;;;;;4934730;28;32268;-75
2022/03/10 11:53:54;;;;;;;20.33;14.90;;;24.90;31.90;;;;;;4987199;28;20061;-76
2022/03/10 11:56:33;;;;;;;20.27;14.60;;;25.10;32.40;;;;;;4936756;28;20041;-76
2022/03/10 11:59:21;;;;;;;21.33;14.87;;;25.30;32.70;;;;;;4985755;28;265686;-76
2022/03/10 12:01:47;;;;;;;19.05;14.30;;;25.80;31.40;;;;;;4939964;28;20466;-77
2022/03/10 12:04:18;;;;;;;20.45;13.80;;;25.90;32.10;;;;;;4963274;28;163801;-76
2022/03/10 12:06:49;;;;;;;;;;;25.90;31.50;;;;;;4956119;28;20050;-76
2022/03/10 12:09:39;;;;;;;19.40;15.02;;;25.70;30.20;;;;;;4999708;28;19917;-76
2022/03/10 12:12:13;;;;;;;19.92;14.38;;;25.70;31.30;;;;;;4964231;28;20389;-76
2022/03/10 12:14:39;;;;;;;19.00;14.13;;;25.90;30.60;;;;;;4960278;28;62185;-76
2022/03/10 12:17:52;;;;;;;19.67;14.25;;;25.70;31.00;;;;;;4992678;28;20054;-76
2022/03/10 12:20:20;;;;;;;18.23;14.07;;;26.00;31.70;;;;;;4951262;28;204786;-75
2022/03/10 12:23:12;;;;;;;18.20;13.73;;;26.20;31.30;;;;;;4990312;28;20045;-75
2022/03/10 12:25:39;;;;;;;21.23;15.23;;;26.40;30.60;;;;;;4934123;28;266091;-76
2022/03/10 12:28:05;;;;;;;18.17;13.48;;;26.10;30.00;;;;;;4981594;28;20435;-75
2022/03/10 12:30:31;;;;;;;17.42;13.38;;;26.10;30.80;;;;;;4958140;28;244358;-74
2022/03/10 12:32:58;;;;;;;19.42;14.70;;;26.40;31.00;;;;;;4984693;28;20058;-75
2022/03/10 12:35:32;;;;;;;19.40;13.57;;;26.40;30.00;;;;;;4938142;28;77485;-75
2022/03/10 12:37:59;;;;;;;16.45;12.73;;;26.40;30.80;;;;;;4975693;28;20060;-76